sensor_id;sensor_type;location;lat;lon;timestamp;pressure;altitude;pressure_sealevel;temperature;humidity
54453;BME280;40363;52.270;10.546;2023-02-03T00:01:53;77735.03;;;-147.06;100.00
54453;BME280;40363;52.270;10.546;2023-02-03T00:04:21;77728.88;;;-147.06;100.00
54453;BME280;40363;52.270;10.546;2023-02-03T00:06:48;77724.75;;;-147.06;100.00
54453;BME280;40363;52.270;10.546;2023-02-03T00:09:15;77722.72;;;-147.06;100.00
54453;BME280;40363;52.270;10.546;2023-02-03T00:11:42;77712.44;;;-147.06;100.00
54453;BME280;40363;52.270;10.546;2023-02-03T00:14:08;77712.44;;;-147.06;100.00
54453;BME280;40363;52.270;10.546;2023-02-03T00:16:35;77706.25;;;-147.06;100.00
54453;BME280;40363;52.270;10.546;2023-02-03T00:19:02;77702.16;;;-147.06;100.00
54453;BME280;40363;52.270;10.546;2023-02-03T00:21:30;77698.03;;;-147.06;100.00
54453;BME280;40363;52.270;10.546;2023-02-03T00:23:57;77691.88;;;-147.06;100.00
54453;BME280;40363;52.270;10.546;2023-02-03T00:26:23;77685.69;;;-147.06;100.00
54453;BME280;40363;52.270;10.546;2023-02-03T00:28:52;77685.69;;;-147.06;100.00
54453;BME280;40363;52.270;10.546;2023-02-03T00:31:21;77663.09;;;-147.06;100.00
54453;BME280;40363;52.270;10.546;2023-02-03T00:33:52;77661.03;;;-147.06;100.00
54453;BME280;40363;52.270;10.546;2023-02-03T00:36:19;77658.97;;;-147.06;100.00
54453;BME280;40363;52.270;10.546;2023-02-03T00:38:47;77646.63;;;-147.06;100.00
54453;BME280;40363;52.270;10.546;2023-02-03T00:41:14;77632.25;;;-147.06;100.00
54453;BME280;40363;52.270;10.546;2023-02-03T00:43:41;77628.13;;;-147.06;100.00
54453;BME280;40363;52.270;10.546;2023-02-03T00:46:08;77607.56;;;-147.06;100.00
54453;BME280;40363;52.270;10.546;2023-02-03T00:48:34;77605.50;;;-147.06;100.00
54453;BME280;40363;52.270;10.546;2023-02-03T00:51:01;77607.56;;;-147.06;100.00
54453;BME280;40363;52.270;10.546;2023-02-03T00:53:28;77607.56;;;-147.06;100.00
54453;BME280;40363;52.270;10.546;2023-02-03T00:55:56;77591.13;;;-147.06;100.00
54453;BME280;40363;52.270;10.546;2023-02-03T00:58:22;77603.47;;;-147.06;100.00
54453;BME280;40363;52.270;10.546;2023-02-03T01:00:49;77611.69;;;-147.06;100.00
54453;BME280;40363;52.270;10.546;2023-02-03T01:03:16;77584.97;;;-147.06;100.00
54453;BME280;40363;52.270;10.546;2023-02-03T01:05:42;77597.28;;;-147.06;100.00
54453;BME280;40363;52.270;10.546;2023-02-03T01:08:09;77576.72;;;-147.06;100.00
54453;BME280;40363;52.270;10.546;2023-02-03T01:10:36;77568.50;;;-147.06;100.00
54453;BME280;40363;52.270;10.546;2023-02-03T01:13:04;77570.56;;;-147.06;100.00
54453;BME280;40363;52.270;10.546;2023-02-03T01:15:31;77574.69;;;-147.06;100.00
54453;BME280;40363;52.270;10.546;2023-02-03T01:17:58;77570.56;;;-147.06;100.00
54453;BME280;40363;52.270;10.546;2023-02-03T01:20:24;77560.28;;;-147.06;100.00
54453;BME280;40363;52.270;10.546;2023-02-03T01:22:51;77554.13;;;-147.06;100.00
54453;BME280;40363;52.270;10.546;2023-02-03T01:25:17;77543.84;;;-147.06;100.00
54453;BME280;40363;52.270;10.546;2023-02-03T01:27:44;77537.66;;;-147.06;100.00
54453;BME280;40363;52.270;10.546;2023-02-03T01:30:13;77535.63;;;-147.06;100.00
54453;BME280;40363;52.270;10.546;2023-02-03T01:32:39;77537.66;;;-147.06;100.00
54453;BME280;40363;52.270;10.546;2023-02-03T01:35:06;77535.63;;;-147.06;100.00
54453;BME280;40363;52.270;10.546;2023-02-03T01:37:33;77529.44;;;-147.06;100.00
54453;BME280;40363;52.270;10.546;2023-02-03T01:40:00;77529.44;;;-147.06;100.00
54453;BME280;40363;52.270;10.546;2023-02-03T01:42:27;77519.16;;;-147.06;100.00
54453;BME280;40363;52.270;10.546;2023-02-03T01:44:58;77517.13;;;-147.06;100.00
54453;BME280;40363;52.270;10.546;2023-02-03T01:47:30;77500.66;;;-147.06;100.00
54453;BME280;40363;52.270;10.546;2023-02-03T01:50:07;77492.44;;;-147.06;100.00
54453;BME280;40363;52.270;10.546;2023-02-03T01:52:37;77484.22;;;-147.06;100.00
54453;BME280;40363;52.270;10.546;2023-02-03T01:55:08;77476.00;;;-147.06;100.00
54453;BME280;40363;52.270;10.546;2023-02-03T01:57:39;77461.59;;;-147.06;100.00
54453;BME280;40363;52.270;10.546;2023-02-03T02:00:08;77453.38;;;-147.06;100.00
54453;BME280;40363;52.270;10.546;2023-02-03T02:02:36;77443.09;;;-147.06;100.00
54453;BME280;40363;52.270;10.546;2023-02-03T02:05:05;77420.50;;;-147.06;100.00
54453;BME280;40363;52.270;10.546;2023-02-03T02:07:33;77408.16;;;-147.06;100.00
54453;BME280;40363;52.270;10.546;2023-02-03T02:10:03;77408.16;;;-147.06;100.00
54453;BME280;40363;52.270;10.546;2023-02-03T02:12:30;77397.88;;;-147.06;100.00
54453;BME280;40363;52.270;10.546;2023-02-03T02:14:57;77385.53;;;-147.06;100.00
54453;BME280;40363;52.270;10.546;2023-02-03T02:17:45;77369.09;;;-147.06;100.00
54453;BME280;40363;52.270;10.546;2023-02-03T02:20:32;77381.44;;;-147.06;100.00
54453;BME280;40363;52.270;10.546;2023-02-03T02:29:08;77348.53;;;-147.06;100.00
54453;BME280;40363;52.270;10.546;2023-02-03T02:31:55;77344.41;;;-147.06;100.00
54453;BME280;40363;52.270;10.546;2023-02-03T02:34:33;77332.09;;;-147.06;100.00
54453;BME280;40363;52.270;10.546;2023-02-03T02:37:08;77338.25;;;-147.06;100.00
54453;BME280;40363;52.270;10.546;2023-02-03T02:39:45;77336.19;;;-147.06;100.00
54453;BME280;40363;52.270;10.546;2023-02-03T02:42:14;77336.19;;;-147.06;100.00
54453;BME280;40363;52.270;10.546;2023-02-03T02:44:48;77319.75;;;-147.06;100.00
54453;BME280;40363;52.270;10.546;2023-02-03T02:47:21;77315.63;;;-147.06;100.00
54453;BME280;40363;52.270;10.546;2023-02-03T02:49:53;77315.63;;;-147.06;100.00
54453;BME280;40363;52.270;10.546;2023-02-03T02:52:23;77303.31;;;-147.06;100.00
54453;BME280;40363;52.270;10.546;2023-02-03T02:54:53;77301.25;;;-147.06;100.00
54453;BME280;40363;52.270;10.546;2023-02-03T02:57:23;77282.75;;;-147.06;100.00
54453;BME280;40363;52.270;10.546;2023-02-03T02:59:52;77274.53;;;-147.06;100.00
54453;BME280;40363;52.270;10.546;2023-02-03T03:02:20;77270.41;;;-147.06;100.00
54453;BME280;40363;52.270;10.546;2023-02-03T03:04:48;77262.19;;;-147.06;100.00
54453;BME280;40363;52.270;10.546;2023-02-03T03:07:20;77256.03;;;-147.06;100.00
54453;BME280;40363;52.270;10.546;2023-02-03T03:09:51;77258.06;;;-147.06;100.00
54453;BME280;40363;52.270;10.546;2023-02-03T03:12:21;77233.41;;;-147.06;100.00
54453;BME280;40363;52.270;10.546;2023-02-03T03:14:53;77239.56;;;-147.06;100.00
54453;BME280;40363;52.270;10.546;2023-02-03T03:17:25;77233.41;;;-147.06;100.00
54453;BME280;40363;52.270;10.546;2023-02-03T03:19:54;77241.63;;;-147.06;100.00
54453;BME280;40363;52.270;10.546;2023-02-03T03:22:24;77245.75;;;-147.06;100.00
54453;BME280;40363;52.270;10.546;2023-02-03T03:24:56;77249.84;;;-147.06;100.00
54453;BME280;40363;52.270;10.546;2023-02-03T03:27:27;77253.97;;;-147.06;99.89
54453;BME280;40363;52.270;10.546;2023-02-03T03:29:57;77245.75;;;-147.06;99.19
54453;BME280;40363;52.270;10.546;2023-02-03T03:32:27;77249.84;;;-147.06;98.65
54453;BME280;40363;52.270;10.546;2023-02-03T03:34:57;77237.53;;;-147.06;98.54
54453;BME280;40363;52.270;10.546;2023-02-03T03:37:30;77212.84;;;-147.06;98.04
54453;BME280;40363;52.270;10.546;2023-02-03T03:40:01;77219.03;;;-147.06;97.76
54453;BME280;40363;52.270;10.546;2023-02-03T03:42:36;77225.19;;;-147.06;98.20
54453;BME280;40363;52.270;10.546;2023-02-03T03:45:09;77202.56;;;-147.06;97.57
54453;BME280;40363;52.270;10.546;2023-02-03T03:47:45;77216.97;;;-147.06;97.32
54453;BME280;40363;52.270;10.546;2023-02-03T03:50:16;77214.91;;;-147.06;96.91
54453;BME280;40363;52.270;10.546;2023-02-03T03:52:44;77216.97;;;-147.06;96.79
54453;BME280;40363;52.270;10.546;2023-02-03T03:55:13;77200.50;;;-147.06;96.34
54453;BME280;40363;52.270;10.546;2023-02-03T03:57:44;77194.34;;;-147.06;96.24
54453;BME280;40363;52.270;10.546;2023-02-03T04:00:16;77192.28;;;-147.06;95.96
54453;BME280;40363;52.270;10.546;2023-02-03T04:02:50;77192.28;;;-147.06;96.09
54453;BME280;40363;52.270;10.546;2023-02-03T04:05:18;77186.13;;;-147.06;95.87
54453;BME280;40363;52.270;10.546;2023-02-03T04:07:46;77192.28;;;-147.06;96.14
54453;BME280;40363;52.270;10.546;2023-02-03T04:10:19;77194.34;;;-147.06;95.88
54453;BME280;40363;52.270;10.546;2023-02-03T04:12:47;77192.28;;;-147.06;95.42
54453;BME280;40363;52.270;10.546;2023-02-03T04:15:14;77192.28;;;-147.06;95.59
54453;BME280;40363;52.270;10.546;2023-02-03T04:17:41;77196.41;;;-147.06;95.55
54453;BME280;40363;52.270;10.546;2023-02-03T04:20:10;77182.00;;;-147.06;95.52
54453;BME280;40363;52.270;10.546;2023-02-03T04:22:37;77188.19;;;-147.06;95.76
54453;BME280;40363;52.270;10.546;2023-02-03T04:25:04;77169.69;;;-147.06;95.25
54453;BME280;40363;52.270;10.546;2023-02-03T04:27:31;77175.84;;;-147.06;95.07
54453;BME280;40363;52.270;10.546;2023-02-03T04:29:58;77169.69;;;-147.06;94.94
54453;BME280;40363;52.270;10.546;2023-02-03T04:32:25;77171.72;;;-147.06;94.75
54453;BME280;40363;52.270;10.546;2023-02-03T04:34:52;77161.47;;;-147.06;94.19
54453;BME280;40363;52.270;10.546;2023-02-03T04:37:19;77159.41;;;-147.06;94.14
54453;BME280;40363;52.270;10.546;2023-02-03T04:39:48;77167.63;;;-147.06;93.99
54453;BME280;40363;52.270;10.546;2023-02-03T04:42:16;77165.56;;;-147.06;93.89
54453;BME280;40363;52.270;10.546;2023-02-03T04:44:43;77167.63;;;-147.06;93.65
54453;BME280;40363;52.270;10.546;2023-02-03T04:47:09;77169.69;;;-147.06;93.57
54453;BME280;40363;52.270;10.546;2023-02-03T04:49:36;77167.63;;;-147.06;93.15
54453;BME280;40363;52.270;10.546;2023-02-03T04:52:03;77163.50;;;-147.06;92.92
54453;BME280;40363;52.270;10.546;2023-02-03T04:54:31;77155.28;;;-147.06;92.61
54453;BME280;40363;52.270;10.546;2023-02-03T04:56:58;77165.56;;;-147.06;93.03
54453;BME280;40363;52.270;10.546;2023-02-03T04:59:25;77161.47;;;-147.06;92.92
54453;BME280;40363;52.270;10.546;2023-02-03T05:01:52;77157.34;;;-147.06;92.78
54453;BME280;40363;52.270;10.546;2023-02-03T05:04:18;77151.19;;;-147.06;92.95
54453;BME280;40363;52.270;10.546;2023-02-03T05:06:45;77149.13;;;-147.06;93.18
54453;BME280;40363;52.270;10.546;2023-02-03T05:09:12;77132.69;;;-147.06;92.70
54453;BME280;40363;52.270;10.546;2023-02-03T05:11:40;77142.97;;;-147.06;92.75
54453;BME280;40363;52.270;10.546;2023-02-03T05:14:06;77142.97;;;-147.06;93.08
54453;BME280;40363;52.270;10.546;2023-02-03T05:16:33;77126.50;;;-147.06;92.80
54453;BME280;40363;52.270;10.546;2023-02-03T05:19:00;77126.50;;;-147.06;92.51
54453;BME280;40363;52.270;10.546;2023-02-03T05:21:26;77112.13;;;-147.06;92.40
54453;BME280;40363;52.270;10.546;2023-02-03T05:23:53;77101.84;;;-147.06;92.05
54453;BME280;40363;52.270;10.546;2023-02-03T05:26:20;77101.84;;;-147.06;92.18
54453;BME280;40363;52.270;10.546;2023-02-03T05:28:48;77093.63;;;-147.06;91.79
54453;BME280;40363;52.270;10.546;2023-02-03T05:31:14;77097.72;;;-147.06;91.78
54453;BME280;40363;52.270;10.546;2023-02-03T05:33:41;77081.28;;;-147.06;91.63
54453;BME280;40363;52.270;10.546;2023-02-03T05:36:08;77091.56;;;-147.06;91.84
54453;BME280;40363;52.270;10.546;2023-02-03T05:38:35;77093.63;;;-147.06;91.62
54453;BME280;40363;52.270;10.546;2023-02-03T05:41:02;77075.13;;;-147.06;91.37
54453;BME280;40363;52.270;10.546;2023-02-03T05:43:47;77060.72;;;-147.06;91.20
54453;BME280;40363;52.270;10.546;2023-02-03T05:46:14;77058.66;;;-147.06;91.22
54453;BME280;40363;52.270;10.546;2023-02-03T05:48:41;77056.63;;;-147.06;91.03
54453;BME280;40363;52.270;10.546;2023-02-03T05:51:07;77058.66;;;-147.06;90.97
54453;BME280;40363;52.270;10.546;2023-02-03T05:53:34;77050.44;;;-147.06;90.97
54453;BME280;40363;52.270;10.546;2023-02-03T05:56:01;77056.63;;;-147.06;90.54
54453;BME280;40363;52.270;10.546;2023-02-03T05:58:27;77054.56;;;-147.06;90.85
54453;BME280;40363;52.270;10.546;2023-02-03T06:00:55;77048.41;;;-147.06;90.27
54453;BME280;40363;52.270;10.546;2023-02-03T06:03:22;77056.63;;;-147.06;89.88
54453;BME280;40363;52.270;10.546;2023-02-03T06:05:49;77060.72;;;-147.06;90.14
54453;BME280;40363;52.270;10.546;2023-02-03T06:08:15;77056.63;;;-147.06;90.29
54453;BME280;40363;52.270;10.546;2023-02-03T06:10:42;77056.63;;;-147.06;90.11
54453;BME280;40363;52.270;10.546;2023-02-03T06:13:10;77052.50;;;-147.06;90.32
54453;BME280;40363;52.270;10.546;2023-02-03T06:15:37;77050.44;;;-147.06;90.32
54453;BME280;40363;52.270;10.546;2023-02-03T06:18:06;77040.16;;;-147.06;90.15
54453;BME280;40363;52.270;10.546;2023-02-03T06:20:33;77046.34;;;-147.06;89.98
54453;BME280;40363;52.270;10.546;2023-02-03T06:23:00;77054.56;;;-147.06;90.09
54453;BME280;40363;52.270;10.546;2023-02-03T06:25:27;77038.13;;;-147.06;89.96
54453;BME280;40363;52.270;10.546;2023-02-03T06:27:56;77046.34;;;-147.06;89.65
54453;BME280;40363;52.270;10.546;2023-02-03T06:30:23;77050.44;;;-147.06;90.11
54453;BME280;40363;52.270;10.546;2023-02-03T06:32:50;77046.34;;;-147.06;90.26
54453;BME280;40363;52.270;10.546;2023-02-03T06:35:18;77052.50;;;-147.06;90.33
54453;BME280;40363;52.270;10.546;2023-02-03T06:37:44;77054.56;;;-147.06;90.51
54453;BME280;40363;52.270;10.546;2023-02-03T06:40:12;77046.34;;;-147.06;90.30
54453;BME280;40363;52.270;10.546;2023-02-03T06:42:38;77040.16;;;-147.06;90.57
54453;BME280;40363;52.270;10.546;2023-02-03T06:45:06;77027.84;;;-147.06;90.46
54453;BME280;40363;52.270;10.546;2023-02-03T06:47:33;77036.06;;;-147.06;91.12
54453;BME280;40363;52.270;10.546;2023-02-03T06:50:00;77036.06;;;-147.06;91.36
54453;BME280;40363;52.270;10.546;2023-02-03T06:52:28;77025.78;;;-147.06;91.63
54453;BME280;40363;52.270;10.546;2023-02-03T06:54:55;77044.28;;;-147.06;92.25
54453;BME280;40363;52.270;10.546;2023-02-03T06:57:22;77040.16;;;-147.06;92.77
54453;BME280;40363;52.270;10.546;2023-02-03T06:59:48;77025.78;;;-147.06;93.04
54453;BME280;40363;52.270;10.546;2023-02-03T07:02:15;77029.88;;;-147.06;93.16
54453;BME280;40363;52.270;10.546;2023-02-03T07:04:42;77031.94;;;-147.06;93.13
54453;BME280;40363;52.270;10.546;2023-02-03T07:07:09;77025.78;;;-147.06;93.66
54453;BME280;40363;52.270;10.546;2023-02-03T07:09:37;77036.06;;;-147.06;93.78
54453;BME280;40363;52.270;10.546;2023-02-03T07:12:04;77025.78;;;-147.06;94.39
54453;BME280;40363;52.270;10.546;2023-02-03T07:14:31;77029.88;;;-147.06;94.63
54453;BME280;40363;52.270;10.546;2023-02-03T07:16:59;77019.63;;;-147.06;94.79
54453;BME280;40363;52.270;10.546;2023-02-03T07:19:26;77011.38;;;-147.06;94.45
54453;BME280;40363;52.270;10.546;2023-02-03T07:21:53;77015.50;;;-147.06;94.53
54453;BME280;40363;52.270;10.546;2023-02-03T07:24:19;77009.34;;;-147.06;94.77
54453;BME280;40363;52.270;10.546;2023-02-03T07:26:47;77011.38;;;-147.06;94.90
54453;BME280;40363;52.270;10.546;2023-02-03T07:29:14;77013.44;;;-147.06;95.19
54453;BME280;40363;52.270;10.546;2023-02-03T07:31:41;77019.63;;;-147.06;95.47
54453;BME280;40363;52.270;10.546;2023-02-03T07:34:07;77019.63;;;-147.06;95.71
54453;BME280;40363;52.270;10.546;2023-02-03T07:36:34;77025.78;;;-147.06;95.87
54453;BME280;40363;52.270;10.546;2023-02-03T07:39:01;77021.66;;;-147.06;95.92
54453;BME280;40363;52.270;10.546;2023-02-03T07:41:27;77023.72;;;-147.06;96.13
54453;BME280;40363;52.270;10.546;2023-02-03T07:43:55;77009.34;;;-147.06;96.30
54453;BME280;40363;52.270;10.546;2023-02-03T07:46:22;77017.56;;;-147.06;96.57
54453;BME280;40363;52.270;10.546;2023-02-03T07:48:49;77023.72;;;-147.06;96.57
54453;BME280;40363;52.270;10.546;2023-02-03T07:51:15;77023.72;;;-147.06;96.73
54453;BME280;40363;52.270;10.546;2023-02-03T07:53:42;77013.44;;;-147.06;97.02
54453;BME280;40363;52.270;10.546;2023-02-03T07:56:08;77003.16;;;-147.06;97.07
54453;BME280;40363;52.270;10.546;2023-02-03T07:58:36;76994.94;;;-147.06;97.02
54453;BME280;40363;52.270;10.546;2023-02-03T08:01:11;76990.84;;;-147.06;97.02
54453;BME280;40363;52.270;10.546;2023-02-03T08:03:39;76982.63;;;-147.06;97.08
54453;BME280;40363;52.270;10.546;2023-02-03T08:06:06;76978.50;;;-147.06;97.17
54453;BME280;40363;52.270;10.546;2023-02-03T08:08:33;76968.22;;;-147.06;97.25
54453;BME280;40363;52.270;10.546;2023-02-03T08:11:00;76980.56;;;-147.06;97.52
54453;BME280;40363;52.270;10.546;2023-02-03T08:13:27;76997.00;;;-147.06;97.89
54453;BME280;40363;52.270;10.546;2023-02-03T08:15:53;76999.06;;;-147.06;98.05
54453;BME280;40363;52.270;10.546;2023-02-03T08:18:22;76982.63;;;-147.06;97.84
54453;BME280;40363;52.270;10.546;2023-02-03T08:20:48;76994.94;;;-147.06;98.08
54453;BME280;40363;52.270;10.546;2023-02-03T08:23:15;76986.72;;;-147.06;98.05
54453;BME280;40363;52.270;10.546;2023-02-03T08:25:42;76986.72;;;-147.06;98.27
54453;BME280;40363;52.270;10.546;2023-02-03T08:28:09;76978.50;;;-147.06;98.38
54453;BME280;40363;52.270;10.546;2023-02-03T08:30:35;76997.00;;;-147.06;98.76
54453;BME280;40363;52.270;10.546;2023-02-03T08:33:02;76994.94;;;-147.06;99.20
54453;BME280;40363;52.270;10.546;2023-02-03T08:35:31;77003.16;;;-147.06;99.21
54453;BME280;40363;52.270;10.546;2023-02-03T08:37:57;77003.16;;;-147.06;99.32
54453;BME280;40363;52.270;10.546;2023-02-03T08:40:24;76986.72;;;-147.06;99.15
54453;BME280;40363;52.270;10.546;2023-02-03T08:42:51;76982.63;;;-147.06;98.92
54453;BME280;40363;52.270;10.546;2023-02-03T08:45:17;76974.38;;;-147.06;98.61
54453;BME280;40363;52.270;10.546;2023-02-03T08:47:44;76970.28;;;-147.06;98.35
54453;BME280;40363;52.270;10.546;2023-02-03T08:50:11;76970.28;;;-147.06;98.09
54453;BME280;40363;52.270;10.546;2023-02-03T08:52:40;76955.88;;;-147.06;97.75
54453;BME280;40363;52.270;10.546;2023-02-03T08:55:07;76957.94;;;-147.06;97.62
54453;BME280;40363;52.270;10.546;2023-02-03T08:57:34;76949.72;;;-147.06;97.07
54453;BME280;40363;52.270;10.546;2023-02-03T09:00:02;76937.38;;;-147.06;97.33
54453;BME280;40363;52.270;10.546;2023-02-03T09:02:29;76935.34;;;-147.06;97.32
54453;BME280;40363;52.270;10.546;2023-02-03T09:04:56;76933.28;;;-147.06;97.36
54453;BME280;40363;52.270;10.546;2023-02-03T09:07:22;76937.38;;;-147.06;97.07
54453;BME280;40363;52.270;10.546;2023-02-03T09:09:50;76929.16;;;-147.06;96.75
54453;BME280;40363;52.270;10.546;2023-02-03T09:12:17;76918.88;;;-147.06;96.45
54453;BME280;40363;52.270;10.546;2023-02-03T09:14:44;76914.78;;;-147.06;96.45
54453;BME280;40363;52.270;10.546;2023-02-03T09:17:11;76914.78;;;-147.06;96.65
54453;BME280;40363;52.270;10.546;2023-02-03T09:19:37;76927.13;;;-147.06;96.79
54453;BME280;40363;52.270;10.546;2023-02-03T09:22:04;76925.06;;;-147.06;96.70
54453;BME280;40363;52.270;10.546;2023-02-03T09:24:30;76916.84;;;-147.06;96.85
54453;BME280;40363;52.270;10.546;2023-02-03T09:26:58;76908.63;;;-147.06;97.36
54453;BME280;40363;52.270;10.546;2023-02-03T09:29:26;76927.13;;;-147.06;98.40
54453;BME280;40363;52.270;10.546;2023-02-03T09:31:53;76923.00;;;-147.06;99.51
54453;BME280;40363;52.270;10.546;2023-02-03T09:34:20;76918.88;;;-147.06;99.92
54453;BME280;40363;52.270;10.546;2023-02-03T09:36:47;76943.56;;;-147.06;100.00
54453;BME280;40363;52.270;10.546;2023-02-03T09:39:13;76937.38;;;-147.06;100.00
54453;BME280;40363;52.270;10.546;2023-02-03T09:44:37;76925.06;;;-147.06;100.00
54453;BME280;40363;52.270;10.546;2023-02-03T09:47:11;76916.84;;;-147.06;99.78
54453;BME280;40363;52.270;10.546;2023-02-03T09:49:40;76916.84;;;-147.06;99.48
54453;BME280;40363;52.270;10.546;2023-02-03T09:52:11;76904.50;;;-147.06;99.27
54453;BME280;40363;52.270;10.546;2023-02-03T09:54:43;76902.44;;;-147.06;98.40
54453;BME280;40363;52.270;10.546;2023-02-03T09:57:15;76894.22;;;-147.06;97.84
54453;BME280;40363;52.270;10.546;2023-02-03T09:59:45;76883.94;;;-147.06;97.21
54453;BME280;40363;52.270;10.546;2023-02-03T10:02:24;76879.84;;;-147.06;96.52
54453;BME280;40363;52.270;10.546;2023-02-03T10:04:59;76871.63;;;-147.06;96.70
54453;BME280;40363;52.270;10.546;2023-02-03T10:07:33;76871.63;;;-147.06;96.67
54453;BME280;40363;52.270;10.546;2023-02-03T10:10:12;76873.66;;;-147.06;96.47
54453;BME280;40363;52.270;10.546;2023-02-03T10:12:52;76871.63;;;-147.06;96.71
54453;BME280;40363;52.270;10.546;2023-02-03T10:18:20;76875.72;;;-147.06;97.70
54453;BME280;40363;52.270;10.546;2023-02-03T10:20:53;76869.56;;;-147.06;97.66
54453;BME280;40363;52.270;10.546;2023-02-03T10:23:23;76871.63;;;-147.06;97.90
54453;BME280;40363;52.270;10.546;2023-02-03T10:25:53;76886.00;;;-147.06;98.06
54453;BME280;40363;52.270;10.546;2023-02-03T10:28:22;76902.44;;;-147.06;97.83
54453;BME280;40363;52.270;10.546;2023-02-03T10:30:55;76906.56;;;-147.06;98.05
54453;BME280;40363;52.270;10.546;2023-02-03T10:33:25;76908.63;;;-147.06;97.34
54453;BME280;40363;52.270;10.546;2023-02-03T10:35:53;76906.56;;;-147.06;96.83
54453;BME280;40363;52.270;10.546;2023-02-03T10:38:40;76883.94;;;-147.06;96.28
54453;BME280;40363;52.270;10.546;2023-02-03T10:41:09;76873.66;;;-147.06;96.25
54453;BME280;40363;52.270;10.546;2023-02-03T10:43:36;76890.13;;;-147.06;96.52
54453;BME280;40363;52.270;10.546;2023-02-03T10:46:19;76900.38;;;-147.06;96.53
54453;BME280;40363;52.270;10.546;2023-02-03T10:48:47;76929.16;;;-147.06;97.38
54453;BME280;40363;52.270;10.546;2023-02-03T10:51:20;76962.06;;;-147.06;98.98
54453;BME280;40363;52.270;10.546;2023-02-03T10:53:47;76974.38;;;-147.06;100.00
54453;BME280;40363;52.270;10.546;2023-02-03T10:56:19;76974.38;;;-147.06;95.75
54453;BME280;40363;52.270;10.546;2023-02-03T10:58:49;76982.63;;;-147.06;91.63
54453;BME280;40363;52.270;10.546;2023-02-03T11:01:19;76970.28;;;-147.06;90.94
54453;BME280;40363;52.270;10.546;2023-02-03T11:03:54;76945.63;;;-147.06;91.45
54453;BME280;40363;52.270;10.546;2023-02-03T11:06:22;76955.88;;;-147.06;91.29
54453;BME280;40363;52.270;10.546;2023-02-03T11:08:49;76957.94;;;-147.06;91.47
54453;BME280;40363;52.270;10.546;2023-02-03T11:11:20;76962.06;;;-147.06;91.69
54453;BME280;40363;52.270;10.546;2023-02-03T11:13:51;76957.94;;;-147.06;89.87
54453;BME280;40363;52.270;10.546;2023-02-03T11:16:20;76970.28;;;-147.06;87.73
54453;BME280;40363;52.270;10.546;2023-02-03T11:18:54;76957.94;;;-147.06;87.12
54453;BME280;40363;52.270;10.546;2023-02-03T11:21:22;76953.84;;;-147.06;85.76
54453;BME280;40363;52.270;10.546;2023-02-03T11:23:56;76941.50;;;-147.06;84.66
54453;BME280;40363;52.270;10.546;2023-02-03T11:26:27;76949.72;;;-147.06;84.29
54453;BME280;40363;52.270;10.546;2023-02-03T11:28:57;76953.84;;;-147.06;83.35
54453;BME280;40363;52.270;10.546;2023-02-03T11:31:27;76949.72;;;-147.06;83.36
54453;BME280;40363;52.270;10.546;2023-02-03T11:34:01;76947.66;;;-147.06;83.15
54453;BME280;40363;52.270;10.546;2023-02-03T11:36:30;76939.44;;;-147.06;82.28
54453;BME280;40363;52.270;10.546;2023-02-03T11:39:16;76931.22;;;-147.06;80.86
54453;BME280;40363;52.270;10.546;2023-02-03T11:41:44;76904.50;;;-147.06;81.07
54453;BME280;40363;52.270;10.546;2023-02-03T11:44:17;76912.72;;;-147.06;81.57
54453;BME280;40363;52.270;10.546;2023-02-03T11:46:46;76916.84;;;-147.06;81.87
54453;BME280;40363;52.270;10.546;2023-02-03T11:55:02;76925.06;;;-147.06;82.26
54453;BME280;40363;52.270;10.546;2023-02-03T11:57:41;76925.06;;;-147.06;83.15
54453;BME280;40363;52.270;10.546;2023-02-03T12:00:22;76916.84;;;-147.06;81.89
54453;BME280;40363;52.270;10.546;2023-02-03T12:03:22;76904.50;;;-147.06;81.34
54453;BME280;40363;52.270;10.546;2023-02-03T12:06:19;76908.63;;;-147.06;82.19
54453;BME280;40363;52.270;10.546;2023-02-03T12:08:58;76925.06;;;-147.06;82.57
54453;BME280;40363;52.270;10.546;2023-02-03T12:11:39;76931.22;;;-147.06;83.00
54453;BME280;40363;52.270;10.546;2023-02-03T12:14:19;76912.72;;;-147.06;82.94
54453;BME280;40363;52.270;10.546;2023-02-03T12:17:14;76920.94;;;-147.06;84.22
54453;BME280;40363;52.270;10.546;2023-02-03T12:19:57;76916.84;;;-147.06;85.13
54453;BME280;40363;52.270;10.546;2023-02-03T12:22:32;76929.16;;;-147.06;85.91
54453;BME280;40363;52.270;10.546;2023-02-03T12:25:09;76923.00;;;-147.06;85.38
54453;BME280;40363;52.270;10.546;2023-02-03T12:27:48;76941.50;;;-147.06;86.07
54453;BME280;40363;52.270;10.546;2023-02-03T12:30:21;76927.13;;;-147.06;86.32
54453;BME280;40363;52.270;10.546;2023-02-03T12:32:52;76933.28;;;-147.06;85.86
54453;BME280;40363;52.270;10.546;2023-02-03T12:35:25;76935.34;;;-147.06;85.12
54453;BME280;40363;52.270;10.546;2023-02-03T12:37:57;76951.78;;;-147.06;84.64
54453;BME280;40363;52.270;10.546;2023-02-03T12:40:34;76937.38;;;-147.06;83.81
54453;BME280;40363;52.270;10.546;2023-02-03T12:43:16;76931.22;;;-147.06;82.96
54453;BME280;40363;52.270;10.546;2023-02-03T12:45:50;76929.16;;;-147.06;82.66
54453;BME280;40363;52.270;10.546;2023-02-03T12:48:21;76923.00;;;-147.06;82.32
54453;BME280;40363;52.270;10.546;2023-02-03T12:50:53;76916.84;;;-147.06;82.28
54453;BME280;40363;52.270;10.546;2023-02-03T12:53:24;76908.63;;;-147.06;80.73
54453;BME280;40363;52.270;10.546;2023-02-03T12:55:57;76929.16;;;-147.06;79.84
54453;BME280;40363;52.270;10.546;2023-02-03T12:58:28;76914.78;;;-147.06;79.49